AUA2103 LOWI-ESSA
Flight info
| Callsign | AUA2103 |
|---|---|
| Flight time | 1h 57m |
| Altitude | 34000 |
| Route | KOGOL3J/08 KOGOL M726 MAH L132 MAMOR/N0445F360 L132 AGNAV/N0445F350 DCT SUPIL DCT KILNU/N0444F360 L132 EKPEK/N0446F350 DCT CIPPI DCT BANUB Z212 POKEN DCT VIBAR/N0424F270 Z227 NILUG |
| Aircraft | A320/M-SDE3FGHIRWY/LB1 |
Departure
| Time | 2026-05-04 18:15 |
|---|---|
| Airport | Innsbruck Airport (LOWI) |
Arrival
| Time | 2026-05-04 20:12 |
|---|---|
| Airport | Stockholm-Arlanda Airport (ESSA) |
| Time | Latitude | Longitude | Altitude | Speed | Heading |
|---|---|---|---|---|---|
| 2026-05-04 17:37 | 47.25797 | 11.34812 | 1901 ft | 0 kts | 171° |
| 2026-05-04 18:07 | 47.25801 | 11.34811 | 1907 ft | 2 kts | 171° |
| 2026-05-04 18:08 | 47.25818 | 11.34807 | 1895 ft | 2 kts | 171° |
| 2026-05-04 18:08 | 47.25835 | 11.34805 | 1895 ft | 2 kts | 218° |
| 2026-05-04 18:08 | 47.25843 | 11.34818 | 1895 ft | 0 kts | 262° |
| 2026-05-04 18:10 | 47.25843 | 11.34817 | 1928 ft | 0 kts | 262° |
| 2026-05-04 18:10 | 47.25843 | 11.34787 | 1915 ft | 4 kts | 271° |
| 2026-05-04 18:10 | 47.25842 | 11.34718 | 1916 ft | 9 kts | 263° |
| 2026-05-04 18:11 | 47.25831 | 11.34624 | 1913 ft | 9 kts | 261° |
| 2026-05-04 18:11 | 47.25820 | 11.34512 | 1905 ft | 15 kts | 262° |
| 2026-05-04 18:11 | 47.25802 | 11.34344 | 1912 ft | 17 kts | 261° |
| 2026-05-04 18:11 | 47.25782 | 11.34165 | 1910 ft | 18 kts | 261° |
| 2026-05-04 18:12 | 47.25773 | 11.33996 | 1916 ft | 12 kts | 278° |
| 2026-05-04 18:12 | 47.25798 | 11.33903 | 1906 ft | 8 kts | 303° |
| 2026-05-04 18:12 | 47.25803 | 11.33892 | 1910 ft | 0 kts | 307° |
| 2026-05-04 18:13 | 47.25819 | 11.33861 | 1902 ft | 7 kts | 307° |
| 2026-05-04 18:14 | 47.25858 | 11.33784 | 1910 ft | 11 kts | 306° |
| 2026-05-04 18:14 | 47.25896 | 11.33706 | 1908 ft | 8 kts | 306° |
| 2026-05-04 18:14 | 47.25929 | 11.33666 | 1903 ft | 6 kts | 8° |
| 2026-05-04 18:15 | 47.26038 | 11.34570 | 1902 ft | 116 kts | 81° |
| 2026-05-04 18:15 | 47.26384 | 11.37741 | 2723 ft | 170 kts | 87° |
| 2026-05-04 18:15 | 47.26558 | 11.39514 | 3430 ft | 179 kts | 85° |
| 2026-05-04 18:16 | 47.26742 | 11.41427 | 3747 ft | 200 kts | 85° |
| 2026-05-04 18:16 | 47.26948 | 11.43558 | 3940 ft | 222 kts | 84° |
| 2026-05-04 18:16 | 47.27352 | 11.45873 | 4189 ft | 247 kts | 72° |
| 2026-05-04 18:17 | 47.28716 | 11.50941 | 5194 ft | 278 kts | 69° |
| 2026-05-04 18:17 | 47.29506 | 11.53587 | 5954 ft | 285 kts | 68° |
| 2026-05-04 18:17 | 47.31111 | 11.59005 | 7514 ft | 294 kts | 69° |
| 2026-05-04 18:18 | 47.31919 | 11.61783 | 8285 ft | 297 kts | 69° |
| 2026-05-04 18:18 | 47.32734 | 11.64588 | 9087 ft | 300 kts | 70° |
| 2026-05-04 18:18 | 47.33563 | 11.67452 | 9527 ft | 306 kts | 69° |
| 2026-05-04 18:18 | 47.34405 | 11.70343 | 10266 ft | 312 kts | 67° |
| 2026-05-04 18:19 | 47.37769 | 11.74872 | 10633 ft | 361 kts | 16° |
| 2026-05-04 18:19 | 47.40287 | 11.75126 | 11124 ft | 369 kts | 348° |
| 2026-05-04 18:19 | 47.42643 | 11.73718 | 11803 ft | 367 kts | 321° |
| 2026-05-04 18:20 | 47.44392 | 11.71028 | 12514 ft | 364 kts | 304° |
| 2026-05-04 18:20 | 47.45951 | 11.68064 | 13184 ft | 368 kts | 307° |
| 2026-05-04 18:20 | 47.47608 | 11.65160 | 13887 ft | 371 kts | 308° |
| 2026-05-04 18:20 | 47.49318 | 11.62274 | 14474 ft | 375 kts | 309° |
| 2026-05-04 18:21 | 47.51031 | 11.59412 | 15064 ft | 378 kts | 309° |
| 2026-05-04 18:21 | 47.52794 | 11.56441 | 15604 ft | 380 kts | 308° |
| 2026-05-04 18:21 | 47.54526 | 11.53476 | 16107 ft | 383 kts | 308° |
| 2026-05-04 18:21 | 47.56261 | 11.50462 | 16608 ft | 386 kts | 307° |
| 2026-05-04 18:22 | 47.58001 | 11.47412 | 17137 ft | 390 kts | 307° |
| 2026-05-04 18:22 | 47.59861 | 11.44453 | 17690 ft | 396 kts | 315° |
| 2026-05-04 18:22 | 47.62095 | 11.42010 | 18213 ft | 403 kts | 327° |
| 2026-05-04 18:22 | 47.64657 | 11.40248 | 18689 ft | 410 kts | 339° |
| 2026-05-04 18:23 | 47.67445 | 11.39272 | 19222 ft | 415 kts | 351° |
| 2026-05-04 18:23 | 47.70328 | 11.38874 | 19740 ft | 418 kts | 353° |
| 2026-05-04 18:23 | 47.73191 | 11.38498 | 20240 ft | 420 kts | 353° |
| 2026-05-04 18:23 | 47.76149 | 11.38101 | 20754 ft | 422 kts | 353° |
| 2026-05-04 18:24 | 47.79043 | 11.37708 | 21222 ft | 425 kts | 353° |
| 2026-05-04 18:24 | 47.81988 | 11.37304 | 21705 ft | 427 kts | 353° |
| 2026-05-04 18:24 | 47.84964 | 11.37035 | 22149 ft | 431 kts | 1° |
| 2026-05-04 18:24 | 47.87923 | 11.37816 | 22589 ft | 437 kts | 18° |
| 2026-05-04 18:25 | 47.90726 | 11.39627 | 23001 ft | 441 kts | 24° |
| 2026-05-04 18:25 | 47.93505 | 11.41585 | 23426 ft | 443 kts | 24° |
| 2026-05-04 18:25 | 47.96297 | 11.43576 | 23781 ft | 446 kts | 24° |
| 2026-05-04 18:25 | 47.99097 | 11.45580 | 24120 ft | 448 kts | 24° |
| 2026-05-04 18:26 | 48.01911 | 11.47594 | 24453 ft | 450 kts | 24° |
| 2026-05-04 18:26 | 48.04740 | 11.49616 | 24780 ft | 452 kts | 24° |
| 2026-05-04 18:26 | 48.07581 | 11.51644 | 25102 ft | 453 kts | 24° |
| 2026-05-04 18:26 | 48.10435 | 11.53675 | 25408 ft | 456 kts | 24° |
| 2026-05-04 18:27 | 48.13307 | 11.55720 | 25714 ft | 458 kts | 24° |
| 2026-05-04 18:27 | 48.16187 | 11.57772 | 26019 ft | 460 kts | 24° |
| 2026-05-04 18:27 | 48.19081 | 11.59839 | 26299 ft | 462 kts | 24° |
| 2026-05-04 18:27 | 48.21985 | 11.61916 | 26593 ft | 464 kts | 24° |
| 2026-05-04 18:28 | 48.24896 | 11.64001 | 26889 ft | 465 kts | 24° |
| 2026-05-04 18:28 | 48.27820 | 11.66100 | 27185 ft | 466 kts | 24° |
| 2026-05-04 18:28 | 48.30750 | 11.68211 | 27464 ft | 468 kts | 24° |
| 2026-05-04 18:28 | 48.33692 | 11.70335 | 27737 ft | 470 kts | 24° |
| 2026-05-04 18:29 | 48.36643 | 11.72461 | 27995 ft | 472 kts | 24° |
| 2026-05-04 18:29 | 48.39612 | 11.74599 | 28256 ft | 473 kts | 24° |
| 2026-05-04 18:29 | 48.42585 | 11.76740 | 28493 ft | 475 kts | 24° |
| 2026-05-04 18:29 | 48.45567 | 11.78892 | 28732 ft | 477 kts | 24° |
| 2026-05-04 18:30 | 48.51564 | 11.83237 | 29201 ft | 479 kts | 24° |
| 2026-05-04 18:30 | 48.54573 | 11.85425 | 29423 ft | 480 kts | 24° |
| 2026-05-04 18:30 | 48.57581 | 11.87616 | 29723 ft | 480 kts | 24° |
| 2026-05-04 18:31 | 48.60583 | 11.89803 | 30026 ft | 479 kts | 24° |
| 2026-05-04 18:31 | 48.63583 | 11.91992 | 30288 ft | 478 kts | 24° |
| 2026-05-04 18:31 | 48.66575 | 11.94180 | 30547 ft | 477 kts | 24° |
| 2026-05-04 18:31 | 48.69562 | 11.96365 | 30813 ft | 477 kts | 24° |
| 2026-05-04 18:32 | 48.72548 | 11.98551 | 31055 ft | 476 kts | 24° |
| 2026-05-04 18:32 | 48.75526 | 12.00733 | 31315 ft | 476 kts | 24° |
| 2026-05-04 18:32 | 48.78505 | 12.02918 | 31581 ft | 475 kts | 24° |
| 2026-05-04 18:32 | 48.81475 | 12.05098 | 31839 ft | 474 kts | 24° |
| 2026-05-04 18:33 | 48.84437 | 12.07275 | 32110 ft | 473 kts | 24° |
| 2026-05-04 18:33 | 48.87359 | 12.09427 | 32377 ft | 472 kts | 24° |
| 2026-05-04 18:33 | 48.90310 | 12.11603 | 32639 ft | 471 kts | 24° |
| 2026-05-04 18:33 | 48.93258 | 12.13779 | 32882 ft | 471 kts | 24° |
| 2026-05-04 18:34 | 48.96202 | 12.15957 | 33148 ft | 470 kts | 24° |
| 2026-05-04 18:34 | 48.99140 | 12.18138 | 33421 ft | 469 kts | 24° |
| 2026-05-04 18:34 | 49.02071 | 12.20318 | 33659 ft | 468 kts | 24° |
| 2026-05-04 18:34 | 49.05000 | 12.22496 | 33882 ft | 468 kts | 24° |
| 2026-05-04 18:35 | 49.07925 | 12.24672 | 33943 ft | 468 kts | 24° |
| 2026-05-04 18:35 | 49.13781 | 12.29032 | 33944 ft | 469 kts | 24° |
| 2026-05-04 18:36 | 49.19640 | 12.33408 | 33945 ft | 469 kts | 24° |
| 2026-05-04 18:36 | 49.25502 | 12.37815 | 33951 ft | 469 kts | 24° |
| 2026-05-04 18:37 | 49.31357 | 12.42214 | 33966 ft | 469 kts | 24° |
| 2026-05-04 18:37 | 49.37209 | 12.46607 | 33963 ft | 468 kts | 24° |
| 2026-05-04 18:38 | 49.43056 | 12.51014 | 33963 ft | 468 kts | 24° |
| 2026-05-04 18:38 | 49.48895 | 12.55442 | 33966 ft | 468 kts | 24° |
| 2026-05-04 18:39 | 49.54727 | 12.59833 | 33970 ft | 466 kts | 20° |
| 2026-05-04 18:39 | 49.60913 | 12.62467 | 33965 ft | 459 kts | 5° |
| 2026-05-04 18:40 | 49.67232 | 12.63985 | 33966 ft | 460 kts | 5° |
| 2026-05-04 18:40 | 49.70402 | 12.64753 | 34110 ft | 461 kts | 5° |
| 2026-05-04 18:40 | 49.73565 | 12.65523 | 34323 ft | 461 kts | 5° |
| 2026-05-04 18:40 | 49.76730 | 12.66297 | 34511 ft | 461 kts | 6° |
| 2026-05-04 18:41 | 49.79897 | 12.67078 | 34705 ft | 460 kts | 6° |
| 2026-05-04 18:41 | 49.83059 | 12.67858 | 34897 ft | 460 kts | 6° |
| 2026-05-04 18:41 | 49.86217 | 12.68637 | 35083 ft | 460 kts | 6° |
| 2026-05-04 18:41 | 49.89377 | 12.69418 | 35261 ft | 460 kts | 6° |
| 2026-05-04 18:42 | 49.92537 | 12.70193 | 35437 ft | 459 kts | 5° |
| 2026-05-04 18:42 | 49.95692 | 12.70966 | 35623 ft | 459 kts | 5° |
| 2026-05-04 18:42 | 49.98850 | 12.71744 | 35775 ft | 460 kts | 5° |
| 2026-05-04 18:42 | 50.00942 | 12.72263 | 35896 ft | 459 kts | 6° |
| 2026-05-04 18:43 | 50.04097 | 12.73049 | 35985 ft | 460 kts | 6° |
| 2026-05-04 18:43 | 50.11444 | 12.74880 | 35994 ft | 460 kts | 6° |
| 2026-05-04 18:44 | 50.17764 | 12.76457 | 36003 ft | 460 kts | 5° |
| 2026-05-04 18:44 | 50.23063 | 12.77772 | 36002 ft | 460 kts | 5° |
| 2026-05-04 18:45 | 50.29386 | 12.79342 | 35999 ft | 460 kts | 5° |
| 2026-05-04 18:45 | 50.35670 | 12.81160 | 35995 ft | 464 kts | 13° |
| 2026-05-04 18:46 | 50.41589 | 12.85382 | 35999 ft | 470 kts | 28° |
| 2026-05-04 18:46 | 50.47144 | 12.90658 | 35990 ft | 470 kts | 28° |
| 2026-05-04 18:47 | 50.52749 | 12.95965 | 35977 ft | 470 kts | 28° |
| 2026-05-04 18:47 | 50.58351 | 13.01290 | 35975 ft | 471 kts | 28° |
| 2026-05-04 18:48 | 50.63956 | 13.06604 | 35977 ft | 470 kts | 27° |
| 2026-05-04 18:48 | 50.69754 | 13.11366 | 35974 ft | 469 kts | 22° |
| 2026-05-04 18:49 | 50.75654 | 13.15764 | 35969 ft | 469 kts | 22° |
| 2026-05-04 18:49 | 50.81543 | 13.20249 | 35972 ft | 470 kts | 23° |
| 2026-05-04 18:50 | 50.87392 | 13.24881 | 35971 ft | 471 kts | 24° |
| 2026-05-04 18:50 | 50.93242 | 13.29571 | 35961 ft | 471 kts | 22° |
| 2026-05-04 18:51 | 50.99385 | 13.32778 | 35972 ft | 461 kts | 5° |
| 2026-05-04 18:51 | 51.05728 | 13.34188 | 35981 ft | 461 kts | 4° |
| 2026-05-04 18:52 | 51.12084 | 13.35603 | 35970 ft | 462 kts | 4° |
| 2026-05-04 18:52 | 51.18441 | 13.37170 | 35964 ft | 463 kts | 5° |
| 2026-05-04 18:53 | 51.24796 | 13.38888 | 35959 ft | 463 kts | 5° |
| 2026-05-04 18:53 | 51.31183 | 13.40607 | 35975 ft | 464 kts | 5° |
| 2026-05-04 18:54 | 51.37521 | 13.42277 | 35966 ft | 464 kts | 5° |
| 2026-05-04 18:54 | 51.43885 | 13.43948 | 35960 ft | 464 kts | 5° |
| 2026-05-04 18:55 | 51.50256 | 13.45631 | 35958 ft | 464 kts | 5° |
| 2026-05-04 18:55 | 51.59803 | 13.48173 | 35966 ft | 463 kts | 5° |
| 2026-05-04 18:56 | 51.66160 | 13.49867 | 35962 ft | 463 kts | 5° |
| 2026-05-04 18:56 | 51.72514 | 13.51573 | 35958 ft | 463 kts | 5° |
| 2026-05-04 18:57 | 51.78872 | 13.53277 | 35975 ft | 463 kts | 5° |
| 2026-05-04 18:57 | 51.85186 | 13.54975 | 35968 ft | 463 kts | 5° |
| 2026-05-04 18:58 | 51.91544 | 13.56692 | 35969 ft | 463 kts | 5° |
| 2026-05-04 18:58 | 51.97906 | 13.58402 | 35978 ft | 463 kts | 5° |
| 2026-05-04 18:59 | 52.04290 | 13.60140 | 35978 ft | 463 kts | 5° |
| 2026-05-04 18:59 | 52.10626 | 13.61866 | 35969 ft | 463 kts | 5° |
| 2026-05-04 19:00 | 52.16981 | 13.63599 | 35964 ft | 463 kts | 5° |
| 2026-05-04 19:00 | 52.23343 | 13.65330 | 35978 ft | 463 kts | 4° |
| 2026-05-04 19:01 | 52.29702 | 13.67072 | 35971 ft | 463 kts | 4° |
| 2026-05-04 19:01 | 52.36055 | 13.68838 | 35965 ft | 463 kts | 5° |
| 2026-05-04 19:02 | 52.42408 | 13.70595 | 35966 ft | 463 kts | 4° |
| 2026-05-04 19:02 | 52.48759 | 13.72347 | 35975 ft | 463 kts | 4° |
| 2026-05-04 19:03 | 52.55108 | 13.74102 | 35978 ft | 463 kts | 4° |
| 2026-05-04 19:03 | 52.61461 | 13.75861 | 35971 ft | 463 kts | 4° |
| 2026-05-04 19:04 | 52.67805 | 13.77637 | 35974 ft | 463 kts | 4° |
| 2026-05-04 19:04 | 52.74153 | 13.79420 | 35974 ft | 463 kts | 4° |
| 2026-05-04 19:05 | 52.80504 | 13.81198 | 35980 ft | 463 kts | 4° |
| 2026-05-04 19:05 | 52.86852 | 13.82986 | 35978 ft | 462 kts | 4° |
| 2026-05-04 19:06 | 52.93197 | 13.84785 | 35993 ft | 463 kts | 4° |
| 2026-05-04 19:06 | 52.99540 | 13.86579 | 35990 ft | 462 kts | 4° |
| 2026-05-04 19:07 | 53.05886 | 13.88379 | 35981 ft | 463 kts | 4° |
| 2026-05-04 19:07 | 53.12190 | 13.90189 | 35980 ft | 463 kts | 4° |
| 2026-05-04 19:08 | 53.18534 | 13.92007 | 35991 ft | 462 kts | 4° |
| 2026-05-04 19:08 | 53.24880 | 13.93818 | 35995 ft | 463 kts | 4° |
| 2026-05-04 19:09 | 53.31224 | 13.95640 | 35980 ft | 462 kts | 4° |
| 2026-05-04 19:09 | 53.37561 | 13.97483 | 35967 ft | 463 kts | 4° |
| 2026-05-04 19:10 | 53.43906 | 13.99316 | 35972 ft | 463 kts | 4° |
| 2026-05-04 19:10 | 53.50255 | 14.01152 | 35960 ft | 463 kts | 4° |
| 2026-05-04 19:11 | 53.56605 | 14.03004 | 35951 ft | 463 kts | 4° |
| 2026-05-04 19:11 | 53.62960 | 14.04869 | 35948 ft | 463 kts | 4° |
| 2026-05-04 19:12 | 53.72489 | 14.07654 | 35969 ft | 464 kts | 4° |
| 2026-05-04 19:13 | 53.78844 | 14.09526 | 35959 ft | 464 kts | 4° |
| 2026-05-04 19:13 | 53.85204 | 14.11412 | 35953 ft | 464 kts | 4° |
| 2026-05-04 19:14 | 53.91559 | 14.13296 | 35947 ft | 464 kts | 4° |
| 2026-05-04 19:14 | 53.97922 | 14.15177 | 35943 ft | 465 kts | 4° |
| 2026-05-04 19:15 | 54.04301 | 14.17080 | 35941 ft | 466 kts | 4° |
| 2026-05-04 19:15 | 54.10685 | 14.18985 | 35936 ft | 466 kts | 4° |
| 2026-05-04 19:16 | 54.17075 | 14.20903 | 35959 ft | 467 kts | 4° |
| 2026-05-04 19:16 | 54.23479 | 14.22833 | 35941 ft | 468 kts | 4° |
| 2026-05-04 19:17 | 54.29891 | 14.24766 | 35936 ft | 468 kts | 4° |
| 2026-05-04 19:17 | 54.36313 | 14.26699 | 35936 ft | 469 kts | 4° |
| 2026-05-04 19:18 | 54.42739 | 14.28654 | 35962 ft | 469 kts | 4° |
| 2026-05-04 19:18 | 54.49063 | 14.31813 | 35946 ft | 480 kts | 19° |
| 2026-05-04 19:19 | 54.55199 | 14.36384 | 35929 ft | 481 kts | 18° |
| 2026-05-04 19:19 | 54.61309 | 14.40935 | 35933 ft | 482 kts | 18° |
| 2026-05-04 19:20 | 54.67466 | 14.45516 | 35955 ft | 482 kts | 18° |
| 2026-05-04 19:20 | 54.73629 | 14.50127 | 35940 ft | 483 kts | 18° |
| 2026-05-04 19:21 | 54.79798 | 14.54759 | 35935 ft | 483 kts | 18° |
| 2026-05-04 19:21 | 54.86004 | 14.59194 | 35934 ft | 481 kts | 15° |
| 2026-05-04 19:22 | 54.92318 | 14.62996 | 35967 ft | 480 kts | 13° |
| 2026-05-04 19:22 | 54.98646 | 14.66670 | 35952 ft | 480 kts | 13° |
| 2026-05-04 19:23 | 55.04959 | 14.70519 | 35951 ft | 481 kts | 14° |
| 2026-05-04 19:23 | 55.11252 | 14.74478 | 35950 ft | 481 kts | 14° |
| 2026-05-04 19:24 | 55.17547 | 14.78454 | 35948 ft | 481 kts | 14° |
| 2026-05-04 19:24 | 55.23846 | 14.82397 | 35936 ft | 481 kts | 14° |
| 2026-05-04 19:25 | 55.30148 | 14.86332 | 35930 ft | 481 kts | 14° |
| 2026-05-04 19:25 | 55.36445 | 14.90297 | 35921 ft | 481 kts | 14° |
| 2026-05-04 19:26 | 55.42734 | 14.94287 | 35944 ft | 480 kts | 14° |
| 2026-05-04 19:26 | 55.49018 | 14.98279 | 35933 ft | 480 kts | 14° |
| 2026-05-04 19:27 | 55.55288 | 15.02277 | 35915 ft | 480 kts | 14° |
| 2026-05-04 19:27 | 55.61567 | 15.06295 | 35906 ft | 480 kts | 14° |
| 2026-05-04 19:28 | 55.67842 | 15.10317 | 35927 ft | 479 kts | 15° |
| 2026-05-04 19:28 | 55.74109 | 15.14341 | 35911 ft | 479 kts | 15° |
| 2026-05-04 19:29 | 55.80372 | 15.18379 | 35902 ft | 479 kts | 15° |
| 2026-05-04 19:29 | 55.85573 | 15.21738 | 35900 ft | 478 kts | 15° |
| 2026-05-04 19:30 | 55.91819 | 15.25790 | 35909 ft | 478 kts | 15° |
| 2026-05-04 19:30 | 55.99061 | 15.30532 | 35900 ft | 477 kts | 15° |
| 2026-05-04 19:31 | 56.05289 | 15.34611 | 35887 ft | 476 kts | 15° |
| 2026-05-04 19:31 | 56.10499 | 15.38020 | 35880 ft | 476 kts | 15° |
| 2026-05-04 19:32 | 56.16666 | 15.42084 | 35903 ft | 475 kts | 15° |
| 2026-05-04 19:32 | 56.22856 | 15.46188 | 35882 ft | 474 kts | 15° |
| 2026-05-04 19:33 | 56.29045 | 15.50295 | 35885 ft | 474 kts | 15° |
| 2026-05-04 19:33 | 56.35224 | 15.54412 | 35874 ft | 473 kts | 15° |
| 2026-05-04 19:34 | 56.41396 | 15.58529 | 35885 ft | 473 kts | 15° |
| 2026-05-04 19:34 | 56.47562 | 15.62654 | 35869 ft | 473 kts | 15° |
| 2026-05-04 19:35 | 56.53727 | 15.66801 | 35852 ft | 472 kts | 15° |
| 2026-05-04 19:35 | 56.59885 | 15.70954 | 35850 ft | 472 kts | 15° |
| 2026-05-04 19:36 | 56.66038 | 15.75120 | 35871 ft | 472 kts | 15° |
| 2026-05-04 19:36 | 56.72182 | 15.79297 | 35850 ft | 471 kts | 15° |
| 2026-05-04 19:37 | 56.78318 | 15.83485 | 35833 ft | 471 kts | 15° |
| 2026-05-04 19:37 | 56.84452 | 15.87666 | 35818 ft | 470 kts | 15° |
| 2026-05-04 19:38 | 56.90577 | 15.91874 | 35815 ft | 470 kts | 16° |
| 2026-05-04 19:38 | 56.96691 | 15.96096 | 35830 ft | 469 kts | 16° |
| 2026-05-04 19:39 | 57.02804 | 16.00316 | 35816 ft | 469 kts | 16° |
| 2026-05-04 19:39 | 57.08906 | 16.04553 | 35810 ft | 469 kts | 16° |
| 2026-05-04 19:40 | 57.15004 | 16.08799 | 35797 ft | 468 kts | 16° |
| 2026-05-04 19:40 | 57.21089 | 16.13058 | 35813 ft | 468 kts | 16° |
| 2026-05-04 19:41 | 57.27170 | 16.17338 | 35791 ft | 467 kts | 16° |
| 2026-05-04 19:41 | 57.33206 | 16.21586 | 35780 ft | 467 kts | 16° |
| 2026-05-04 19:42 | 57.39282 | 16.25867 | 35771 ft | 467 kts | 16° |
| 2026-05-04 19:42 | 57.45356 | 16.30169 | 35791 ft | 467 kts | 15° |
| 2026-05-04 19:43 | 57.51423 | 16.34486 | 35778 ft | 467 kts | 15° |
| 2026-05-04 19:43 | 57.57467 | 16.38939 | 35749 ft | 469 kts | 20° |
| 2026-05-04 19:43 | 57.60330 | 16.41907 | 35200 ft | 472 kts | 26° |
| 2026-05-04 19:44 | 57.63124 | 16.45121 | 34506 ft | 472 kts | 27° |
| 2026-05-04 19:44 | 57.65901 | 16.48359 | 33859 ft | 470 kts | 27° |
| 2026-05-04 19:44 | 57.68665 | 16.51607 | 33125 ft | 468 kts | 27° |
| 2026-05-04 19:44 | 57.71420 | 16.54852 | 32336 ft | 467 kts | 27° |
| 2026-05-04 19:45 | 57.74168 | 16.58086 | 31468 ft | 468 kts | 27° |
| 2026-05-04 19:45 | 57.76930 | 16.61330 | 30603 ft | 469 kts | 27° |
| 2026-05-04 19:45 | 57.79692 | 16.64573 | 29769 ft | 469 kts | 27° |
| 2026-05-04 19:45 | 57.82437 | 16.67833 | 29063 ft | 465 kts | 28° |
| 2026-05-04 19:46 | 57.85139 | 16.71125 | 28743 ft | 462 kts | 27° |
| 2026-05-04 19:46 | 57.90597 | 16.77530 | 28739 ft | 463 kts | 27° |
| 2026-05-04 19:47 | 57.96077 | 16.83914 | 28455 ft | 462 kts | 26° |
| 2026-05-04 19:47 | 57.98892 | 16.86707 | 28186 ft | 454 kts | 18° |
| 2026-05-04 19:47 | 58.01784 | 16.89095 | 27905 ft | 453 kts | 18° |
| 2026-05-04 19:47 | 58.04665 | 16.91480 | 27631 ft | 452 kts | 18° |
| 2026-05-04 19:48 | 58.07542 | 16.93867 | 27362 ft | 451 kts | 18° |
| 2026-05-04 19:48 | 58.10411 | 16.96250 | 27099 ft | 450 kts | 18° |
| 2026-05-04 19:48 | 58.13274 | 16.98636 | 26831 ft | 449 kts | 18° |
| 2026-05-04 19:48 | 58.16127 | 17.01020 | 26573 ft | 448 kts | 18° |
| 2026-05-04 19:49 | 58.18978 | 17.03400 | 26361 ft | 447 kts | 18° |
| 2026-05-04 19:49 | 58.21767 | 17.05726 | 26100 ft | 447 kts | 18° |
| 2026-05-04 19:49 | 58.24664 | 17.08145 | 25841 ft | 446 kts | 18° |
| 2026-05-04 19:49 | 58.27500 | 17.10523 | 25591 ft | 445 kts | 18° |
| 2026-05-04 19:50 | 58.30330 | 17.12902 | 25339 ft | 444 kts | 18° |
| 2026-05-04 19:50 | 58.33155 | 17.15277 | 25086 ft | 443 kts | 18° |
| 2026-05-04 19:50 | 58.35967 | 17.17645 | 24848 ft | 443 kts | 18° |
| 2026-05-04 19:50 | 58.38787 | 17.20026 | 24603 ft | 442 kts | 18° |
| 2026-05-04 19:51 | 58.41594 | 17.22398 | 24362 ft | 441 kts | 18° |
| 2026-05-04 19:51 | 58.44394 | 17.24773 | 24145 ft | 440 kts | 18° |
| 2026-05-04 19:51 | 58.47195 | 17.27155 | 23910 ft | 440 kts | 18° |
| 2026-05-04 19:51 | 58.49954 | 17.29503 | 23675 ft | 440 kts | 18° |
| 2026-05-04 19:52 | 58.52746 | 17.31882 | 23442 ft | 439 kts | 18° |
| 2026-05-04 19:52 | 58.55536 | 17.34262 | 23192 ft | 438 kts | 18° |
| 2026-05-04 19:52 | 58.58317 | 17.36639 | 22911 ft | 437 kts | 18° |
| 2026-05-04 19:52 | 58.61089 | 17.39017 | 22635 ft | 436 kts | 18° |
| 2026-05-04 19:53 | 58.63851 | 17.41391 | 22361 ft | 434 kts | 18° |
| 2026-05-04 19:53 | 58.66601 | 17.43755 | 22084 ft | 432 kts | 18° |
| 2026-05-04 19:53 | 58.69341 | 17.46114 | 21816 ft | 431 kts | 18° |
| 2026-05-04 19:53 | 58.72073 | 17.48469 | 21594 ft | 430 kts | 18° |
| 2026-05-04 19:54 | 58.74795 | 17.50817 | 21329 ft | 428 kts | 18° |
| 2026-05-04 19:54 | 58.77509 | 17.53162 | 21060 ft | 427 kts | 18° |
| 2026-05-04 19:54 | 58.80213 | 17.55506 | 20798 ft | 425 kts | 18° |
| 2026-05-04 19:54 | 58.82903 | 17.57845 | 20540 ft | 424 kts | 18° |
| 2026-05-04 19:55 | 58.85589 | 17.60181 | 20285 ft | 422 kts | 18° |
| 2026-05-04 19:55 | 58.88263 | 17.62510 | 20026 ft | 421 kts | 18° |
| 2026-05-04 19:55 | 58.90929 | 17.64835 | 19775 ft | 420 kts | 18° |
| 2026-05-04 19:55 | 58.93585 | 17.67157 | 19528 ft | 418 kts | 18° |
| 2026-05-04 19:56 | 58.96234 | 17.69479 | 19302 ft | 417 kts | 18° |
| 2026-05-04 19:56 | 58.98876 | 17.71798 | 19057 ft | 416 kts | 18° |
| 2026-05-04 19:56 | 59.01510 | 17.74112 | 18813 ft | 415 kts | 18° |
| 2026-05-04 19:56 | 59.04137 | 17.76424 | 18571 ft | 414 kts | 18° |
| 2026-05-04 19:57 | 59.06756 | 17.78735 | 18326 ft | 413 kts | 18° |
| 2026-05-04 19:57 | 59.09366 | 17.81043 | 18090 ft | 411 kts | 18° |
| 2026-05-04 19:57 | 59.11967 | 17.83349 | 17843 ft | 410 kts | 18° |
| 2026-05-04 19:57 | 59.14523 | 17.85617 | 17576 ft | 408 kts | 18° |
| 2026-05-04 19:58 | 59.17102 | 17.87908 | 17308 ft | 407 kts | 18° |
| 2026-05-04 19:58 | 59.19673 | 17.90193 | 17038 ft | 405 kts | 18° |
| 2026-05-04 19:58 | 59.22231 | 17.92466 | 16774 ft | 403 kts | 18° |
| 2026-05-04 19:58 | 59.24781 | 17.94736 | 16545 ft | 402 kts | 18° |
| 2026-05-04 19:59 | 59.27322 | 17.97001 | 16281 ft | 401 kts | 18° |
| 2026-05-04 19:59 | 59.29850 | 17.99262 | 16023 ft | 399 kts | 18° |
| 2026-05-04 19:59 | 59.32370 | 18.01523 | 15765 ft | 398 kts | 18° |
| 2026-05-04 19:59 | 59.34881 | 18.03781 | 15509 ft | 396 kts | 18° |
| 2026-05-04 20:00 | 59.37374 | 18.06029 | 15244 ft | 394 kts | 18° |
| 2026-05-04 20:00 | 59.39850 | 18.08263 | 14838 ft | 390 kts | 18° |
| 2026-05-04 20:00 | 59.42312 | 18.10484 | 14305 ft | 389 kts | 18° |
| 2026-05-04 20:00 | 59.44769 | 18.12701 | 13765 ft | 388 kts | 19° |
| 2026-05-04 20:01 | 59.47221 | 18.14921 | 13187 ft | 388 kts | 19° |
| 2026-05-04 20:01 | 59.49666 | 18.17143 | 12653 ft | 386 kts | 19° |
| 2026-05-04 20:01 | 59.52096 | 18.19334 | 12073 ft | 382 kts | 17° |
| 2026-05-04 20:01 | 59.54591 | 18.20865 | 11521 ft | 371 kts | 6° |
| 2026-05-04 20:02 | 59.57120 | 18.21779 | 10904 ft | 369 kts | 5° |
| 2026-05-04 20:02 | 59.59639 | 18.22679 | 10301 ft | 367 kts | 5° |
| 2026-05-04 20:02 | 59.62146 | 18.23581 | 9708 ft | 364 kts | 5° |
| 2026-05-04 20:02 | 59.64628 | 18.24481 | 9086 ft | 361 kts | 6° |
| 2026-05-04 20:03 | 59.67092 | 18.25382 | 8476 ft | 359 kts | 6° |
| 2026-05-04 20:03 | 59.69537 | 18.26283 | 7886 ft | 356 kts | 6° |
| 2026-05-04 20:03 | 59.71963 | 18.27185 | 7311 ft | 353 kts | 6° |
| 2026-05-04 20:03 | 59.74361 | 18.28083 | 6768 ft | 350 kts | 6° |
| 2026-05-04 20:04 | 59.76736 | 18.28982 | 6208 ft | 342 kts | 6° |
| 2026-05-04 20:04 | 59.78979 | 18.29856 | 5573 ft | 315 kts | 6° |
| 2026-05-04 20:04 | 59.81033 | 18.30668 | 5072 ft | 285 kts | 2° |
| 2026-05-04 20:04 | 59.82895 | 18.30687 | 5213 ft | 264 kts | 344° |
| 2026-05-04 20:05 | 59.84569 | 18.29432 | 4968 ft | 253 kts | 320° |
| 2026-05-04 20:05 | 59.85740 | 18.27022 | 4749 ft | 243 kts | 296° |
| 2026-05-04 20:05 | 59.86260 | 18.23893 | 4531 ft | 235 kts | 273° |
| 2026-05-04 20:05 | 59.86091 | 18.20882 | 4239 ft | 209 kts | 252° |
| 2026-05-04 20:06 | 59.85432 | 18.18394 | 3756 ft | 201 kts | 240° |
| 2026-05-04 20:06 | 59.84692 | 18.16056 | 3425 ft | 199 kts | 241° |
| 2026-05-04 20:06 | 59.83964 | 18.13719 | 3050 ft | 196 kts | 240° |
| 2026-05-04 20:06 | 59.83251 | 18.11498 | 2668 ft | 183 kts | 240° |
| 2026-05-04 20:07 | 59.82588 | 18.09499 | 2549 ft | 166 kts | 239° |
| 2026-05-04 20:07 | 59.81965 | 18.07634 | 2543 ft | 160 kts | 239° |
| 2026-05-04 20:07 | 59.81356 | 18.05791 | 2464 ft | 159 kts | 240° |
| 2026-05-04 20:07 | 59.80763 | 18.03965 | 2357 ft | 156 kts | 241° |
| 2026-05-04 20:08 | 59.80159 | 18.02180 | 2266 ft | 156 kts | 235° |
| 2026-05-04 20:08 | 59.79362 | 18.00698 | 2332 ft | 159 kts | 220° |
| 2026-05-04 20:08 | 59.78310 | 17.99867 | 2391 ft | 169 kts | 195° |
| 2026-05-04 20:08 | 59.77115 | 17.99821 | 2335 ft | 174 kts | 184° |
| 2026-05-04 20:09 | 59.75942 | 17.99972 | 2229 ft | 162 kts | 189° |
| 2026-05-04 20:09 | 59.74902 | 17.99682 | 2133 ft | 144 kts | 200° |
| 2026-05-04 20:09 | 59.73948 | 17.99206 | 1962 ft | 140 kts | 204° |
| 2026-05-04 20:09 | 59.73026 | 17.98738 | 1762 ft | 138 kts | 200° |
| 2026-05-04 20:10 | 59.72067 | 17.98396 | 1605 ft | 139 kts | 198° |
| 2026-05-04 20:10 | 59.71117 | 17.98186 | 1295 ft | 138 kts | 193° |
| 2026-05-04 20:10 | 59.70170 | 17.97929 | 1155 ft | 137 kts | 197° |
| 2026-05-04 20:10 | 59.69245 | 17.97507 | 1058 ft | 137 kts | 200° |
| 2026-05-04 20:11 | 59.68310 | 17.97136 | 894 ft | 138 kts | 197° |
| 2026-05-04 20:11 | 59.67369 | 17.96804 | 678 ft | 137 kts | 195° |
| 2026-05-04 20:11 | 59.66425 | 17.96462 | 473 ft | 138 kts | 197° |
| 2026-05-04 20:11 | 59.65494 | 17.96116 | 306 ft | 136 kts | 195° |
| 2026-05-04 20:12 | 59.64575 | 17.95782 | 159 ft | 130 kts | 194° |
| 2026-05-04 20:12 | 59.63801 | 17.95482 | 145 ft | 84 kts | 190° |
| 2026-05-04 20:12 | 59.63479 | 17.95363 | 144 ft | 29 kts | 199° |
| 2026-05-04 20:12 | 59.63313 | 17.95158 | 139 ft | 26 kts | 220° |